Time;durP1;ratioP1;P1;durP2;ratioP2;P2;SDS_P1;SDS_P2;PMS_P1;PMS_P2;Temp;Humidity;BMP_temperature;BMP_pressure;BME280_temperature;BME280_humidity;BME280_pressure;Samples;Min_cycle;Max_cycle;Signal;HPM_P1;HPM_P2
2021/05/08 00:00:07;;;;;;;1.95;1.40;;;;;;;19.03;47.86;98316.44;5090700;28;20051;-82
2021/05/08 00:02:32;;;;;;;1.13;0.93;;;;;;;19.01;47.85;98311.34;5090927;28;20421;-82
2021/05/08 00:04:57;;;;;;;5.05;1.20;;;;;;;19.02;47.63;98317.59;5090670;28;20020;-82
2021/05/08 00:07:23;;;;;;;2.15;1.55;;;;;;;19.02;47.49;98323.00;5090799;28;20072;-82
2021/05/08 00:09:48;;;;;;;1.67;1.10;;;;;;;18.99;48.06;98320.97;5090641;28;20028;-82
2021/05/08 00:12:14;;;;;;;1.73;1.20;;;;;;;18.98;48.13;98320.22;5090828;28;20095;-82
2021/05/08 00:14:39;;;;;;;3.28;1.23;;;;;;;18.96;48.29;98314.34;5090640;28;20482;-82
2021/05/08 00:17:06;;;;;;;4.60;1.33;;;;;;;18.94;48.04;98324.72;5090542;28;20019;-82
2021/05/08 00:19:32;;;;;;;1.90;1.42;;;;;;;18.91;47.86;98319.19;5090659;28;20028;-82
2021/05/08 00:21:58;;;;;;;1.50;1.40;;;;;;;18.92;48.12;98323.50;5090629;28;20024;-82
2021/05/08 00:24:23;;;;;;;3.50;1.33;;;;;;;18.88;48.23;98321.47;5090619;28;20486;-82
2021/05/08 00:26:49;;;;;;;3.70;1.42;;;;;;;18.87;48.86;98333.44;5090513;28;20502;-82
2021/05/08 00:29:15;;;;;;;2.28;1.58;;;;;;;18.84;48.92;98327.94;5090579;28;20032;-82
2021/05/08 00:31:40;;;;;;;5.20;1.75;;;;;;;18.82;49.04;98335.63;5090195;28;20048;-82
2021/05/08 00:34:07;;;;;;;1.38;1.25;;;;;;;18.82;49.24;98341.84;5090212;28;20440;-82
2021/05/08 00:36:35;;;;;;;1.75;1.42;;;;;;;18.81;49.10;98328.63;5090419;28;20028;-82
2021/05/08 00:39:02;;;;;;;1.75;1.42;;;;;;;18.78;49.31;98329.34;5090261;28;20027;-81
2021/05/08 00:41:27;;;;;;;4.10;1.77;;;;;;;18.73;49.59;98331.16;5090441;28;20035;-82
2021/05/08 00:43:57;;;;;;;2.60;1.20;;;;;;;18.73;49.42;98336.56;5090057;28;20020;-82
2021/05/08 00:46:24;;;;;;;1.40;1.13;;;;;;;18.69;49.31;98335.69;5090095;28;20027;-82
2021/05/08 00:48:50;;;;;;;1.60;1.30;;;;;;;18.67;49.19;98329.06;5089784;28;20028;-82
2021/05/08 00:51:16;;;;;;;3.03;1.45;;;;;;;18.63;48.86;98326.25;5090296;28;20084;-82
2021/05/08 00:53:41;;;;;;;1.63;1.17;;;;;;;18.62;48.60;98324.69;5090186;28;20019;-82
2021/05/08 00:56:07;;;;;;;1.67;1.00;;;;;;;18.62;48.85;98323.91;5089977;28;20077;-80
2021/05/08 00:58:34;;;;;;;1.55;1.30;;;;;;;18.60;48.59;98320.75;5090131;28;20404;-81
2021/05/08 01:01:00;;;;;;;1.17;1.17;;;;;;;18.60;48.55;98323.44;5089960;28;20020;-81
2021/05/08 01:03:25;;;;;;;1.95;1.27;;;;;;;18.57;48.44;98319.53;5090121;28;20061;-81
2021/05/08 01:05:51;;;;;;;1.95;1.23;;;;;;;18.58;48.60;98314.88;5090057;28;20024;-81
2021/05/08 01:08:16;;;;;;;3.53;1.17;;;;;;;18.60;48.46;98316.09;5089971;28;20032;-81
2021/05/08 01:10:42;;;;;;;3.40;1.45;;;;;;;18.58;48.73;98318.41;5090111;28;20106;-81
2021/05/08 01:13:08;;;;;;;2.65;1.27;;;;;;;18.56;48.65;98320.66;5089648;28;20020;-81
2021/05/08 01:15:33;;;;;;;4.22;1.40;;;;;;;18.59;48.84;98322.69;5090013;28;20436;-81
2021/05/08 01:17:59;;;;;;;1.50;1.05;;;;;;;18.59;48.73;98325.38;5089833;28;20130;-81
2021/05/08 01:20:25;;;;;;;1.20;1.08;;;;;;;18.56;48.51;98315.25;5089934;28;20028;-81
2021/05/08 01:22:50;;;;;;;1.45;1.02;;;;;;;18.57;48.87;98319.53;5089964;28;20374;-81
2021/05/08 01:25:20;;;;;;;1.15;1.15;;;;;;;18.56;49.30;98315.25;5089810;28;20368;-81
2021/05/08 01:27:49;;;;;;;1.13;1.02;;;;;;;18.55;49.25;98316.38;5089859;28;20085;-81
2021/05/08 01:30:32;;;;;;;3.50;1.20;;;;;;;18.52;49.24;98314.38;5089481;28;20489;-81
2021/05/08 01:32:58;;;;;;;1.77;1.27;;;;;;;18.50;49.28;98314.69;5089580;28;20020;-81
2021/05/08 01:35:24;;;;;;;1.30;1.20;;;;;;;18.47;49.75;98314.59;5089848;28;20032;-81
2021/05/08 01:37:49;;;;;;;1.88;1.45;;;;;;;18.43;49.87;98329.97;5089509;28;20027;-81
2021/05/08 01:40:16;;;;;;;1.83;1.33;;;;;;;18.39;50.07;98335.28;5089493;28;20031;-81
2021/05/08 01:42:44;;;;;;;1.65;1.55;;;;;;;18.34;50.24;98339.03;5089772;28;20026;-82
2021/05/08 01:45:13;;;;;;;1.95;1.40;;;;;;;18.31;50.58;98341.63;5089417;28;20039;-82
2021/05/08 01:47:39;;;;;;;1.90;1.30;;;;;;;18.26;50.49;98339.97;5089688;28;20098;-82
2021/05/08 01:50:07;;;;;;;2.72;1.20;;;;;;;18.18;51.06;98349.81;5089116;28;20040;-81
2021/05/08 01:52:32;;;;;;;1.40;1.30;;;;;;;18.03;50.93;98354.03;5089598;28;20431;-80
2021/05/08 01:54:59;;;;;;;4.13;2.35;;;;;;;17.88;50.89;98363.63;5089270;28;20124;-80
2021/05/08 01:57:25;;;;;;;4.15;1.50;;;;;;;17.67;52.40;98358.34;5089501;28;20024;-81
2021/05/08 01:59:50;;;;;;;3.83;1.90;;;;;;;17.51;53.35;98360.94;5092560;28;20035;-80
2021/05/08 02:02:16;;;;;;;4.05;1.75;;;;;;;17.36;53.60;98354.31;5093158;28;20355;-81
2021/05/08 02:04:41;;;;;;;2.63;2.42;;;;;;;17.28;54.04;98357.91;5093360;28;20429;-81
2021/05/08 02:07:07;;;;;;;2.55;2.33;;;;;;;17.19;54.73;98368.81;5092928;28;20107;-80
2021/05/08 02:09:32;;;;;;;3.03;2.00;;;;;;;17.10;54.79;98354.63;5093252;28;20035;-81
2021/05/08 02:11:57;;;;;;;3.60;2.83;;;;;;;17.09;55.49;98355.78;5092893;28;20489;-81
2021/05/08 02:14:23;;;;;;;5.35;3.08;;;;;;;17.11;55.03;98357.00;5093042;28;20478;-81
2021/05/08 02:16:48;;;;;;;4.30;2.38;;;;;;;17.16;55.54;98363.31;5093021;28;20486;-81
2021/05/08 02:19:14;;;;;;;8.15;3.10;;;;;;;17.19;55.21;98346.44;5092765;28;20028;-81
2021/05/08 02:21:39;;;;;;;4.03;2.72;;;;;;;17.23;55.20;98355.44;5093000;28;20027;-81
2021/05/08 02:24:05;;;;;;;7.38;2.47;;;;;;;17.29;55.24;98345.97;5092731;28;20109;-82
2021/05/08 02:26:31;;;;;;;3.03;1.88;;;;;;;17.31;55.23;98343.72;5092917;28;20016;-81
2021/05/08 02:28:57;;;;;;;2.45;1.98;;;;;;;17.37;55.22;98346.97;5092564;28;20039;-81
2021/05/08 02:31:22;;;;;;;2.30;2.05;;;;;;;17.39;55.17;98350.16;5092561;28;20040;-81
2021/05/08 02:33:48;;;;;;;2.90;2.13;;;;;;;17.39;54.91;98350.16;5092467;28;20078;-82
2021/05/08 02:36:13;;;;;;;3.33;2.00;;;;;;;17.37;55.08;98350.50;5092444;28;20026;-81
2021/05/08 02:38:38;;;;;;;5.28;2.80;;;;;;;17.37;55.52;98364.00;5092877;28;20099;-81
2021/05/08 02:41:04;;;;;;;5.18;2.28;;;;;;;17.35;55.61;98362.75;5092479;28;20459;-81
2021/05/08 02:43:29;;;;;;;4.10;2.65;;;;;;;17.34;55.54;98370.06;5092630;28;20111;-81
2021/05/08 02:45:55;;;;;;;3.95;2.20;;;;;;;17.31;55.25;98369.94;5092630;28;20127;-80
2021/05/08 02:48:20;;;;;;;2.20;1.92;;;;;;;17.29;55.26;98384.59;5092318;28;20020;-81
2021/05/08 02:50:46;;;;;;;2.45;1.45;;;;;;;17.27;54.97;98396.84;5092504;28;20032;-81
2021/05/08 02:53:11;;;;;;;2.65;2.42;;;;;;;17.25;55.28;98402.59;5092272;28;20020;-81
2021/05/08 02:55:37;;;;;;;2.65;2.22;;;;;;;17.25;55.08;98396.44;5092533;28;20050;-82
2021/05/08 02:58:02;;;;;;;2.47;1.70;;;;;;;17.24;55.20;98397.53;5092445;28;20418;-81
2021/05/08 03:00:28;;;;;;;4.22;2.05;;;;;;;17.20;54.68;98404.72;5092619;28;20088;-81
2021/05/08 03:02:53;;;;;;;3.90;1.85;;;;;;;17.17;55.28;98406.19;5093016;28;20016;-81
2021/05/08 03:05:19;;;;;;;4.07;2.05;;;;;;;17.14;55.50;98401.47;5093554;28;20040;-81
2021/05/08 03:07:44;;;;;;;3.25;1.75;;;;;;;17.16;55.30;98411.94;5093717;28;20024;-82
2021/05/08 03:10:10;;;;;;;2.67;2.00;;;;;;;17.17;55.13;98408.13;5091522;28;20364;-81
2021/05/08 03:12:37;;;;;;;3.40;1.95;;;;;;;17.16;55.24;98414.63;5092935;28;20031;-81
2021/05/08 03:15:04;;;;;;;1.70;1.30;;;;;;;17.14;55.49;98412.28;5092469;28;20118;-81
2021/05/08 03:17:29;;;;;;;4.03;1.70;;;;;;;17.13;55.42;98419.59;5092486;28;20042;-82
2021/05/08 03:19:55;;;;;;;3.60;2.70;;;;;;;17.14;55.25;98428.50;5092542;28;20020;-82
2021/05/08 03:22:20;;;;;;;3.33;1.92;;;;;;;17.11;54.98;98432.66;5091715;28;20020;-82
2021/05/08 03:24:46;;;;;;;1.80;1.63;;;;;;;17.12;55.81;98431.53;5092288;28;20034;-82
2021/05/08 03:27:11;;;;;;;3.83;1.80;;;;;;;17.15;56.15;98437.38;5091752;28;20077;-82
2021/05/08 03:29:37;;;;;;;2.17;1.98;;;;;;;17.17;55.91;98445.94;5092024;28;20443;-82
2021/05/08 03:32:03;;;;;;;3.50;2.55;;;;;;;17.20;56.13;98445.25;5090961;28;20115;-82
2021/05/08 03:34:29;;;;;;;6.45;2.75;;;;;;;17.24;56.31;98454.28;5091656;28;20023;-82
2021/05/08 03:36:54;;;;;;;2.97;2.10;;;;;;;17.26;55.77;98465.56;5091763;28;20395;-82
2021/05/08 03:39:19;;;;;;;2.22;1.60;;;;;;;17.13;56.66;98479.03;5091597;28;20459;-82
2021/05/08 03:41:45;;;;;;;3.28;2.03;;;;;;;16.96;56.64;98490.78;5091444;28;20076;-81
2021/05/08 03:44:10;;;;;;;4.20;3.80;;;;;;;16.79;58.73;98489.00;5091170;28;20061;-81
2021/05/08 03:46:36;;;;;;;4.93;4.43;;;;;;;16.62;60.25;98497.25;5091501;28;20028;-82
2021/05/08 03:49:02;;;;;;;5.50;4.47;;;;;;;16.47;60.72;98507.50;5091367;28;20073;-83
2021/05/08 03:51:27;;;;;;;4.90;4.32;;;;;;;16.30;62.34;98527.28;5091795;28;20031;-80
2021/05/08 03:53:54;;;;;;;5.05;4.55;;;;;;;16.16;62.47;98526.75;5092252;28;20439;-81
2021/05/08 03:56:20;;;;;;;7.65;5.50;;;;;;;16.06;63.32;98540.59;5091774;28;20032;-82
2021/05/08 03:58:46;;;;;;;10.82;5.65;;;;;;;16.02;63.50;98547.78;5091907;28;20070;-82
2021/05/08 04:01:11;;;;;;;9.10;5.85;;;;;;;15.98;63.48;98551.09;5091461;28;20439;-82
2021/05/08 04:03:37;;;;;;;6.72;5.45;;;;;;;16.06;63.45;98562.97;5091532;28;20024;-83
2021/05/08 04:06:02;;;;;;;8.95;5.43;;;;;;;16.13;63.41;98568.66;5092350;28;20023;-83
2021/05/08 04:08:28;;;;;;;7.35;6.13;;;;;;;16.26;63.36;98569.53;5091278;28;20481;-83
2021/05/08 04:10:53;;;;;;;10.25;6.28;;;;;;;16.40;63.31;98566.59;5090792;28;20110;-83
2021/05/08 04:13:18;;;;;;;6.35;4.93;;;;;;;16.56;62.88;98574.16;5090598;28;20114;-83
2021/05/08 04:15:44;;;;;;;7.20;5.75;;;;;;;16.72;62.80;98577.84;5090749;28;20422;-82
2021/05/08 04:18:11;;;;;;;12.35;5.88;;;;;;;16.88;62.69;98590.75;5090355;28;20439;-83
2021/05/08 04:20:37;;;;;;;9.77;5.72;;;;;;;17.06;62.16;98592.22;5090657;28;20085;-82
2021/05/08 04:23:03;;;;;;;10.13;6.10;;;;;;;17.23;61.67;98585.13;5090622;28;20031;-82
2021/05/08 04:25:29;;;;;;;7.95;4.65;;;;;;;17.41;61.07;98583.06;5090445;28;20024;-82
2021/05/08 04:27:55;;;;;;;6.93;5.32;;;;;;;17.62;60.38;98595.72;5090509;28;20020;-82
2021/05/08 04:30:21;;;;;;;6.88;5.55;;;;;;;17.74;59.74;98596.53;5089910;28;20071;-82
2021/05/08 04:32:46;;;;;;;4.68;4.25;;;;;;;17.88;58.40;98598.13;5090261;28;20024;-82
2021/05/08 04:35:12;;;;;;;4.10;3.28;;;;;;;17.98;56.73;98607.75;5090364;28;20032;-82
2021/05/08 04:37:37;;;;;;;3.55;3.22;;;;;;;18.10;55.18;98623.25;5090376;28;20051;-81
2021/05/08 04:40:04;;;;;;;4.53;2.90;;;;;;;18.21;54.74;98610.84;5090327;28;20024;-82
2021/05/08 04:42:30;;;;;;;2.35;2.13;;;;;;;18.47;53.75;98617.81;5090195;28;20112;-82
2021/05/08 04:44:55;;;;;;;2.78;2.35;;;;;;;18.86;52.58;98618.25;5090157;28;20060;-82
2021/05/08 04:47:21;;;;;;;4.03;2.30;;;;;;;19.17;50.72;98614.91;5089926;28;20115;-81
2021/05/08 04:49:47;;;;;;;4.25;3.40;;;;;;;19.58;50.50;98620.31;5090069;28;20057;-82
2021/05/08 04:52:13;;;;;;;3.88;2.78;;;;;;;19.92;49.89;98626.25;5090125;28;20110;-81
2021/05/08 04:54:39;;;;;;;6.35;2.90;;;;;;;20.22;49.56;98635.91;5090461;28;20108;-80
2021/05/08 04:57:04;;;;;;;4.43;2.90;;;;;;;20.37;49.81;98645.16;5090104;28;20024;-81
2021/05/08 04:59:30;;;;;;;3.42;3.03;;;;;;;20.52;49.37;98649.00;5089724;28;20023;-81
2021/05/08 05:01:56;;;;;;;6.50;3.60;;;;;;;20.63;48.91;98647.34;5090005;28;20459;-81
2021/05/08 05:04:21;;;;;;;7.57;3.28;;;;;;;20.69;47.72;98653.28;5089719;28;20039;-81
2021/05/08 05:06:47;;;;;;;5.25;4.75;;;;;;;20.44;47.87;98651.56;5090055;28;20020;-80
2021/05/08 05:09:12;;;;;;;3.17;2.78;;;;;;;20.42;47.41;98661.19;5089836;28;20032;-80
2021/05/08 05:11:37;;;;;;;4.43;3.20;;;;;;;20.27;47.25;98649.97;5090003;28;20114;-82
2021/05/08 05:14:03;;;;;;;2.85;2.42;;;;;;;20.16;46.92;98662.50;5089969;28;20469;-81
2021/05/08 05:16:29;;;;;;;3.33;2.78;;;;;;;20.02;47.39;98659.44;5089650;28;20020;-80
2021/05/08 05:18:54;;;;;;;7.38;3.33;;;;;;;19.85;47.88;98672.19;5089849;28;20031;-82
2021/05/08 05:21:20;;;;;;;4.38;2.67;;;;;;;19.74;48.39;98671.88;5089564;28;20293;-81
2021/05/08 05:23:45;;;;;;;4.78;2.78;;;;;;;19.55;48.49;98680.66;5089937;28;20451;-81
2021/05/08 05:26:11;;;;;;;4.25;2.97;;;;;;;19.46;48.91;98688.16;5089321;28;20111;-81
2021/05/08 05:28:36;;;;;;;8.10;3.00;;;;;;;19.38;49.61;98683.66;5089887;28;20024;-81
2021/05/08 05:31:02;;;;;;;9.45;3.72;;;;;;;19.31;49.51;98681.50;5089572;28;20463;-81
2021/05/08 05:33:27;;;;;;;4.90;3.33;;;;;;;19.32;49.63;98691.22;5090193;28;20020;-81
2021/05/08 05:35:55;;;;;;;6.18;3.90;;;;;;;19.29;49.85;98687.28;5093781;28;20035;-81
2021/05/08 05:38:21;;;;;;;4.15;3.38;;;;;;;19.17;50.30;98696.22;5093442;28;20455;-81
2021/05/08 05:40:47;;;;;;;4.50;3.78;;;;;;;19.19;50.55;98695.91;5093574;28;20122;-82
2021/05/08 05:43:13;;;;;;;9.40;3.88;;;;;;;19.12;50.66;98699.19;5093401;28;20150;-81
2021/05/08 05:45:39;;;;;;;8.95;3.80;;;;;;;19.10;51.22;98692.53;5093644;28;20080;-82
2021/05/08 05:48:05;;;;;;;4.68;3.83;;;;;;;19.14;50.96;98691.50;5093395;28;20496;-83
2021/05/08 05:50:36;;;;;;;9.70;3.80;;;;;;;19.28;51.04;98682.22;5092822;28;20028;-82
2021/05/08 05:53:01;;;;;;;4.25;3.45;;;;;;;19.51;50.61;98685.97;5093394;28;20016;-82
2021/05/08 05:55:27;;;;;;;4.47;3.75;;;;;;;19.78;49.52;98680.91;5093260;28;20032;-82
2021/05/08 05:57:54;;;;;;;3.65;3.40;;;;;;;19.94;48.29;98669.31;5093297;28;20039;-81
2021/05/08 06:00:20;;;;;;;10.65;4.28;;;;;;;20.14;47.13;98679.16;5092717;28;20119;-82
2021/05/08 06:02:46;;;;;;;5.53;3.40;;;;;;;20.34;45.50;98684.69;5093269;28;20031;-82
2021/05/08 06:05:11;;;;;;;5.13;3.88;;;;;;;20.59;44.83;98690.72;5093030;28;20024;-82
2021/05/08 06:07:37;;;;;;;5.95;3.47;;;;;;;20.87;44.05;98692.56;5093255;28;20016;-82
2021/05/08 06:10:04;;;;;;;6.43;4.07;;;;;;;21.05;43.74;98681.31;5093101;28;20034;-82
2021/05/08 06:12:31;;;;;;;8.27;3.95;;;;;;;21.23;43.00;98687.13;5092446;28;20028;-82
2021/05/08 06:14:57;;;;;;;5.75;4.78;;;;;;;21.29;42.07;98691.13;5092946;28;20404;-82
2021/05/08 06:17:22;;;;;;;4.47;3.80;;;;;;;21.37;41.86;98702.94;5092694;28;20020;-81
2021/05/08 06:19:48;;;;;;;7.63;5.07;;;;;;;21.54;41.24;98707.97;5092925;28;20086;-81
2021/05/08 06:22:13;;;;;;;5.40;3.90;;;;;;;21.72;41.49;98713.78;5092640;28;20028;-81
2021/05/08 06:24:39;;;;;;;6.63;3.83;;;;;;;21.94;40.64;98714.22;5092698;28;20023;-81
2021/05/08 06:27:05;;;;;;;5.47;4.25;;;;;;;22.18;40.63;98720.47;5092988;28;20024;-81
2021/05/08 06:29:30;;;;;;;5.60;3.95;;;;;;;22.48;40.23;98725.28;5092583;28;20032;-81
2021/05/08 06:31:56;;;;;;;4.80;4.25;;;;;;;22.75;39.97;98726.09;5092771;28;20048;-81
2021/05/08 06:34:21;;;;;;;6.55;4.10;;;;;;;22.91;37.89;98726.00;5092411;28;20048;-81
2021/05/08 06:36:46;;;;;;;6.70;3.38;;;;;;;23.06;37.69;98732.44;5092577;28;20024;-81
2021/05/08 06:39:12;;;;;;;8.05;3.58;;;;;;;23.11;37.46;98737.56;5092341;28;20081;-81
2021/05/08 06:41:38;;;;;;;5.07;3.70;;;;;;;23.13;36.62;98743.44;5092584;28;20081;-80
2021/05/08 06:44:04;;;;;;;3.63;3.33;;;;;;;23.13;37.08;98746.16;5092462;28;20032;-81
2021/05/08 06:46:30;;;;;;;7.82;4.43;;;;;;;23.04;37.03;98745.63;5090922;28;20067;-81
2021/05/08 06:48:55;;;;;;;9.48;3.78;;;;;;;22.93;36.72;98745.47;5092278;28;20055;-80
2021/05/08 06:51:21;;;;;;;5.85;3.08;;;;;;;22.92;37.30;98748.56;5092059;28;20028;-80
2021/05/08 06:53:46;;;;;;;4.53;3.25;;;;;;;23.00;37.09;98753.75;5092179;28;20421;-82
2021/05/08 06:56:13;;;;;;;7.85;4.63;;;;;;;22.90;36.90;98754.41;5091968;28;20034;-82
2021/05/08 06:58:40;;;;;;;8.52;4.63;;;;;;;22.91;36.46;98766.09;5092154;28;20043;-81
2021/05/08 07:01:06;;;;;;;6.00;4.03;;;;;;;22.97;36.58;98762.69;5092141;28;20482;-80
2021/05/08 07:03:31;;;;;;;8.13;5.50;;;;;;;22.92;36.53;98770.38;5091746;28;20055;-80
2021/05/08 07:05:57;;;;;;;5.30;4.80;;;;;;;22.85;36.68;98774.56;5092088;28;20070;-80
2021/05/08 07:08:22;;;;;;;6.60;5.15;;;;;;;22.78;37.56;98779.91;5091401;28;20089;-80
2021/05/08 07:10:51;;;;;;;9.75;5.13;;;;;;;22.71;37.32;98788.75;5091975;28;20115;-80
2021/05/08 07:13:18;;;;;;;6.90;4.57;;;;;;;22.60;37.29;98792.47;5091197;28;20043;-81
2021/05/08 07:15:43;;;;;;;6.07;3.40;;;;;;;22.35;37.26;98784.56;5091911;28;20026;-81
2021/05/08 07:18:09;;;;;;;6.15;3.45;;;;;;;22.14;37.21;98784.97;5091857;28;20024;-80
2021/05/08 07:20:37;;;;;;;7.65;3.83;;;;;;;22.03;38.02;98792.94;5091246;28;20028;-82
2021/05/08 07:23:03;;;;;;;;;;;;;;;21.90;38.03;98795.81;5092160;28;20081;-82
2021/05/08 07:25:30;;;;;;;8.95;4.00;;;;;;;21.68;38.92;98783.69;5091422;28;19999;-83
2021/05/08 07:28:10;;;;;;;6.22;3.75;;;;;;;21.54;39.31;98786.09;5091719;28;20020;-82
2021/05/08 07:30:36;;;;;;;7.22;3.55;;;;;;;21.48;39.19;98787.50;5091205;28;20486;-82
2021/05/08 07:33:02;;;;;;;4.63;4.22;;;;;;;21.41;39.17;98788.94;5091461;28;20028;-82
2021/05/08 07:35:28;;;;;;;5.38;3.75;;;;;;;21.41;39.00;98802.53;5091306;28;20024;-82
2021/05/08 07:37:53;;;;;;;5.47;3.80;;;;;;;21.35;39.33;98789.53;5091499;28;20024;-81
2021/05/08 07:40:19;;;;;;;4.28;3.65;;;;;;;21.35;39.35;98790.34;5091173;28;20027;-82
2021/05/08 07:42:44;;;;;;;5.10;3.67;;;;;;;21.33;39.80;98789.91;5091202;28;20020;-82
2021/05/08 07:45:11;;;;;;;4.95;3.20;;;;;;;21.43;40.02;98783.94;5091458;28;20028;-82
2021/05/08 07:47:37;;;;;;;4.05;3.65;;;;;;;21.60;39.51;98781.97;5091127;28;20101;-82
2021/05/08 07:50:03;;;;;;;7.07;4.35;;;;;;;21.65;39.82;98789.84;5091062;28;20031;-82
2021/05/08 07:52:29;;;;;;;6.22;3.22;;;;;;;21.86;39.26;98791.44;5091137;28;20051;-82
2021/05/08 07:54:54;;;;;;;7.30;3.17;;;;;;;21.95;38.23;98791.22;5091211;28;20050;-82
2021/05/08 07:57:20;;;;;;;3.67;3.25;;;;;;;22.09;38.15;98788.00;5090505;28;20031;-82
2021/05/08 07:59:45;;;;;;;2.92;2.72;;;;;;;22.18;38.00;98788.53;5091094;28;20024;-82
2021/05/08 08:02:11;;;;;;;4.57;2.72;;;;;;;22.12;37.42;98792.72;5091087;28;20027;-82
2021/05/08 08:04:36;;;;;;;5.53;3.50;;;;;;;22.19;38.59;98784.69;5090720;28;20058;-83
2021/05/08 08:07:02;;;;;;;6.35;2.90;;;;;;;22.21;38.02;98785.88;5090876;28;20024;-82
2021/05/08 08:09:27;;;;;;;4.57;3.30;;;;;;;22.30;37.81;98784.88;5090455;28;20114;-82
2021/05/08 08:11:53;;;;;;;6.63;3.47;;;;;;;22.30;37.32;98785.69;5090901;28;20016;-81
2021/05/08 08:14:19;;;;;;;3.55;2.97;;;;;;;22.27;37.62;98794.56;5090588;28;20387;-82
2021/05/08 08:16:45;;;;;;;6.18;3.30;;;;;;;22.35;37.11;98785.38;5090848;28;20020;-82
2021/05/08 08:19:10;;;;;;;5.00;3.05;;;;;;;22.38;37.00;98781.19;5090709;28;20035;-82
2021/05/08 08:21:36;;;;;;;6.63;3.30;;;;;;;22.43;36.09;98783.59;5090582;28;20119;-82
2021/05/08 08:24:01;;;;;;;3.83;3.47;;;;;;;22.46;36.33;98790.25;5090690;28;20052;-82
2021/05/08 08:26:27;;;;;;;4.57;4.18;;;;;;;22.48;36.55;98791.47;5090432;28;20035;-82
2021/05/08 08:28:52;;;;;;;4.18;3.33;;;;;;;22.51;36.60;98798.94;5090654;28;20020;-81
2021/05/08 08:31:18;;;;;;;5.10;3.45;;;;;;;22.49;36.46;98787.59;5090048;28;20040;-83
2021/05/08 08:33:44;;;;;;;6.07;3.30;;;;;;;22.45;36.32;98797.66;5090539;28;20020;-82
2021/05/08 08:36:10;;;;;;;17.45;3.78;;;;;;;22.48;37.01;98801.59;5090176;28;20072;-82
2021/05/08 08:38:35;;;;;;;3.20;3.00;;;;;;;22.42;37.17;98814.72;5090170;28;20023;-82
2021/05/08 08:41:01;;;;;;;5.30;3.42;;;;;;;22.45;37.13;98819.44;5090378;28;20028;-82
2021/05/08 08:43:27;;;;;;;3.30;3.03;;;;;;;22.41;37.35;98820.53;5090258;28;20031;-82
2021/05/08 08:45:53;;;;;;;4.40;3.75;;;;;;;22.43;37.69;98824.47;5090140;28;20209;-82
2021/05/08 08:48:21;;;;;;;7.38;3.53;;;;;;;22.44;38.14;98828.75;5090068;28;20024;-82
2021/05/08 08:50:48;;;;;;;4.15;3.70;;;;;;;22.50;37.68;98813.69;5090518;28;20032;-81
2021/05/08 08:53:15;;;;;;;4.85;4.03;;;;;;;22.51;37.21;98831.63;5089897;28;20019;-81
2021/05/08 08:55:49;;;;;;;4.55;4.05;;;;;;;22.47;37.32;98832.72;5089820;28;20027;-81
2021/05/08 08:58:16;;;;;;;9.07;4.20;;;;;;;22.29;36.81;98840.50;5090120;28;20016;-81
2021/05/08 09:00:42;;;;;;;7.88;4.18;;;;;;;22.24;37.05;98828.00;5089731;28;20128;-81
2021/05/08 09:03:07;;;;;;;5.43;4.50;;;;;;;22.16;37.05;98848.06;5089746;28;20055;-82
2021/05/08 09:05:33;;;;;;;6.05;4.07;;;;;;;22.04;37.74;98844.31;5089357;28;20031;-81
2021/05/08 09:08:05;;;;;;;3.83;3.53;;;;;;;21.99;38.15;98843.81;5089128;28;20065;-81
2021/05/08 09:10:32;;;;;;;5.88;4.15;;;;;;;21.94;38.28;98833.22;5089514;28;20055;-81
2021/05/08 09:12:59;;;;;;;6.72;3.70;;;;;;;21.88;38.95;98832.69;5089849;28;20023;-81
2021/05/08 09:15:42;;;;;;;5.43;4.93;;;;;;;21.90;39.10;98838.59;5089831;28;20066;-81
2021/05/08 09:18:10;;;;;;;7.05;4.00;;;;;;;21.97;38.29;98837.94;5089883;28;20081;-81
2021/05/08 09:20:43;;;;;;;4.50;4.10;;;;;;;21.96;38.35;98826.28;5089816;28;20544;-81
2021/05/08 09:23:22;;;;;;;4.32;3.92;;;;;;;22.00;38.59;98824.41;5089730;28;20032;-81
2021/05/08 09:26:10;;;;;;;8.50;4.25;;;;;;;22.08;38.17;98814.41;5089701;28;20044;-81
2021/05/08 09:28:41;;;;;;;6.20;3.97;;;;;;;22.14;38.85;98823.09;5089798;28;20024;-81
2021/05/08 09:31:13;;;;;;;4.90;3.85;;;;;;;22.20;38.55;98822.47;5089413;28;20040;-81
2021/05/08 09:33:39;;;;;;;5.90;4.05;;;;;;;22.21;37.76;98834.91;5089634;28;20123;-81
2021/05/08 09:36:10;;;;;;;4.35;3.95;;;;;;;22.21;38.18;98836.88;5089706;28;20122;-81
2021/05/08 09:38:44;;;;;;;7.85;4.50;;;;;;;22.26;37.95;98842.00;5089557;28;20016;-81
2021/05/08 09:41:11;;;;;;;6.18;4.18;;;;;;;22.20;38.13;98841.53;5089747;28;20024;-81
2021/05/08 09:43:37;;;;;;;4.65;4.22;;;;;;;22.25;38.75;98837.72;5089052;28;20043;-81
2021/05/08 09:46:06;;;;;;;6.75;4.72;;;;;;;22.34;38.52;98857.34;5089809;28;20028;-80
2021/05/08 09:48:39;;;;;;;4.50;4.05;;;;;;;22.42;38.55;98855.56;5089377;28;20035;-80
2021/05/08 09:51:28;;;;;;;6.47;3.58;;;;;;;22.43;37.48;98835.38;5089719;28;20028;-81
2021/05/08 09:53:55;;;;;;;4.03;3.63;;;;;;;22.48;37.79;98843.22;5089606;28;20020;-82
2021/05/08 09:56:40;;;;;;;5.57;3.85;;;;;;;22.48;38.13;98840.50;5089541;28;20028;-81
2021/05/08 09:59:25;;;;;;;7.18;3.88;;;;;;;22.46;37.86;98852.91;5090173;28;20074;-81
2021/05/08 10:02:10;;;;;;;4.15;3.40;;;;;;;22.48;37.92;98861.53;5089896;28;20024;-81
2021/05/08 10:04:45;;;;;;;4.20;3.80;;;;;;;22.52;37.02;98852.28;5089823;28;20020;-81
2021/05/08 10:07:12;;;;;;;4.55;4.15;;;;;;;22.51;37.37;98860.81;5089735;28;20055;-82
2021/05/08 10:09:39;;;;;;;6.72;4.30;;;;;;;22.53;36.90;98872.94;5089293;28;20028;-82
2021/05/08 10:12:10;;;;;;;5.72;4.03;;;;;;;22.46;36.45;98859.19;5089646;28;20390;-81
2021/05/08 10:14:37;;;;;;;9.00;4.35;;;;;;;22.46;37.33;98877.44;5089298;28;20097;-81
2021/05/08 10:17:03;;;;;;;4.55;4.10;;;;;;;22.46;36.80;98861.91;5089642;28;20039;-81
2021/05/08 10:19:32;;;;;;;6.07;3.90;;;;;;;22.44;36.93;98868.88;5090119;28;20386;-82
2021/05/08 10:22:02;;;;;;;5.18;3.78;;;;;;;22.46;37.11;98863.81;5093251;28;20367;-82
2021/05/08 10:24:28;;;;;;;4.32;3.97;;;;;;;22.50;37.52;98864.69;5092950;28;20024;-82
2021/05/08 10:26:59;;;;;;;5.10;4.25;;;;;;;22.50;36.65;98870.16;5092960;28;20035;-82
2021/05/08 10:29:30;;;;;;;6.05;4.20;;;;;;;22.50;37.07;98864.69;5093369;28;20018;-82
2021/05/08 10:31:58;;;;;;;7.18;3.42;;;;;;;22.54;37.31;98860.91;5092549;28;20044;-82
2021/05/08 10:34:35;;;;;;;3.65;3.35;;;;;;;22.54;37.58;98855.44;5092696;28;20039;-82
2021/05/08 10:37:10;;;;;;;4.88;3.67;;;;;;;22.55;38.08;98856.22;5093593;28;20070;-82
2021/05/08 10:40:09;;;;;;;4.28;3.88;;;;;;;22.54;37.29;98868.25;5093283;28;20077;-82
2021/05/08 10:42:43;;;;;;;5.70;4.05;;;;;;;22.54;37.55;98863.63;5083145;28;20063;-82
2021/05/08 10:45:18;;;;;;;5.30;4.07;;;;;;;22.50;38.05;98862.75;5093391;28;20039;-82
2021/05/08 10:47:52;;;;;;;8.10;4.45;;;;;;;22.45;37.87;98867.69;5093621;28;20123;-82
2021/05/08 10:50:25;;;;;;;9.90;4.90;;;;;;;22.44;38.46;98857.97;5094375;28;20024;-82
2021/05/08 10:53:17;;;;;;;5.03;3.63;;;;;;;22.53;37.47;98875.66;5093551;28;20110;-82
2021/05/08 10:55:56;;;;;;;6.38;4.43;;;;;;;22.67;38.09;98877.84;5092874;28;20516;-82
2021/05/08 10:58:22;;;;;;;4.43;3.97;;;;;;;22.76;38.00;98872.16;5092928;28;20027;-83
2021/05/08 11:00:57;;;;;;;3.90;3.60;;;;;;;22.88;37.83;98884.84;5092422;28;20517;-81
2021/05/08 11:03:24;;;;;;;4.07;3.75;;;;;;;22.73;37.20;98878.34;5092325;28;20028;-82
2021/05/08 11:05:54;;;;;;;6.38;3.80;;;;;;;22.76;37.79;98874.13;5092405;28;20031;-82
2021/05/08 11:08:43;;;;;;;3.95;3.55;;;;;;;22.84;37.26;98879.31;5092266;28;20020;-82
2021/05/08 11:11:22;;;;;;;6.97;3.70;;;;;;;22.91;36.98;98875.16;5084099;28;20119;-82
2021/05/08 11:14:01;;;;;;;3.63;3.20;;;;;;;22.91;36.26;98865.03;5091860;28;20050;-81
2021/05/08 11:16:28;;;;;;;4.70;4.30;;;;;;;22.91;36.57;98865.03;5091970;28;20036;-82
2021/05/08 11:18:55;;;;;;;4.55;4.13;;;;;;;22.94;36.24;98874.44;5092374;28;20093;-81
2021/05/08 11:21:21;;;;;;;4.25;3.92;;;;;;;22.98;36.23;98864.38;5092406;28;20035;-82
2021/05/08 11:24:04;;;;;;;9.20;5.57;;;;;;;22.93;37.09;98862.72;5091769;28;20080;-82
2021/05/08 11:26:29;;;;;;;4.65;4.25;;;;;;;22.96;36.52;98861.22;5091901;28;20089;-82
2021/05/08 11:28:56;;;;;;;4.30;3.95;;;;;;;23.01;36.08;98864.44;5092114;28;20463;-81
2021/05/08 11:31:23;;;;;;;4.35;3.92;;;;;;;22.90;36.48;98876.28;5090628;28;20380;-82
2021/05/08 11:33:48;;;;;;;6.70;3.97;;;;;;;22.90;35.34;98879.03;5091426;28;20024;-80